NCAR-RAP Real-Time Weather Data

Output produced by METARs form (10 April 2020  07:23 UTC)
found at http://weather.rap.ucar.edu/surface/
 
KWAL 100654Z AUTO 32020G28KT 10SM FEW120 09/M05 A2956 RMK AO2 PK WND 30030/0609 SLP006 T00941050